Time;durP1;ratioP1;P1;durP2;ratioP2;P2;SDS_P1;SDS_P2;PMS_P1;PMS_P2;Temp;Humidity;BMP_temperature;BMP_pressure;BME280_temperature;BME280_humidity;BME280_pressure;Samples;Min_cycle;Max_cycle;Signal;HPM_P1;HPM_P2
2024/01/21 00:01:42;;;;;;;;;;;1.50;99.90;;;;;;5097216;28;19924;-69
2024/01/21 00:04:08;;;;;;;;;;;1.50;99.90;;;;;;5114823;28;20007;-69
2024/01/21 00:06:34;;;;;;;;;;;1.60;99.90;;;;;;5097403;28;20302;-69
2024/01/21 00:09:00;;;;;;;;;;;1.40;99.90;;;;;;5097155;28;19931;-69
2024/01/21 00:11:25;;;;;;;;;;;1.40;99.90;;;;;;5094782;28;20418;-69
2024/01/21 00:13:51;;;;;;;;;;;1.40;99.90;;;;;;5111236;28;20272;-69
2024/01/21 00:16:16;;;;;;;;;;;1.30;99.90;;;;;;5101164;28;20016;-69
2024/01/21 00:18:42;;;;;;;;;;;1.30;99.90;;;;;;5095937;28;19967;-70
2024/01/21 00:21:07;;;;;;;;;;;1.30;99.90;;;;;;5071117;28;20040;-70
2024/01/21 00:23:33;;;;;;;;;;;1.20;99.90;;;;;;5109587;28;20299;-70
2024/01/21 00:25:58;;;;;;;;;;;1.20;99.90;;;;;;5078508;28;19933;-70
2024/01/21 00:28:24;;;;;;;;;;;1.10;99.90;;;;;;5092684;28;19927;-70
2024/01/21 00:30:50;;;;;;;;;;;1.10;99.90;;;;;;5076306;28;19971;-70
2024/01/21 00:33:15;;;;;;;;;;;1.10;99.90;;;;;;5093208;28;19924;-69
2024/01/21 00:35:41;;;;;;;;;;;1.20;99.90;;;;;;5076062;28;20329;-69
2024/01/21 00:38:06;;;;;;;;;;;1.10;99.90;;;;;;5093419;28;19924;-70
2024/01/21 00:40:32;;;;;;;;;;;1.10;99.90;;;;;;5109023;28;19928;-70
2024/01/21 00:42:59;;;;;;;;;;;1.10;99.90;;;;;;5093963;28;20074;-70
2024/01/21 00:45:27;;;;;;;;;;;1.00;99.90;;;;;;5074557;28;19924;-70
2024/01/21 00:47:53;;;;;;;;;;;1.00;99.90;;;;;;5093861;28;19966;-70
2024/01/21 00:50:18;;;;;;;;;;;1.00;99.90;;;;;;5108784;28;20349;-69
2024/01/21 00:52:44;;;;;;;;;;;0.90;99.90;;;;;;5093100;28;19939;-68
2024/01/21 00:55:10;;;;;;;;;;;1.00;99.90;;;;;;5075387;28;19931;-69
2024/01/21 00:57:35;;;;;;;;;;;0.90;99.90;;;;;;5093331;28;19931;-68
2024/01/21 01:00:01;;;;;;;;;;;1.00;99.90;;;;;;5074462;28;19931;-68
2024/01/21 01:02:26;;;;;;;;;;;0.90;99.90;;;;;;5093284;28;19955;-68
2024/01/21 01:04:52;;;;;;;;;;;0.90;99.90;;;;;;5075103;28;19931;-69
2024/01/21 01:07:17;;;;;;;;;;;1.00;99.90;;;;;;5091725;28;19924;-69
2024/01/21 01:09:43;;;;;;;;;;;1.00;99.90;;;;;;5074319;28;20380;-68
2024/01/21 01:12:08;;;;;;;;;;;1.10;99.90;;;;;;5093259;28;19935;-68
2024/01/21 01:14:34;;;;;;;;;;;1.10;99.90;;;;;;5074249;28;19924;-68
2024/01/21 01:16:59;;;;;;;;;;;1.20;99.90;;;;;;5092921;28;19928;-69
2024/01/21 01:19:25;;;;;;;;;;;1.20;99.90;;;;;;5093446;28;20336;-68
2024/01/21 01:21:53;;;;;;;;;;;1.10;99.90;;;;;;5096642;28;20443;-69
2024/01/21 01:24:19;;;;;;;;;;;1.60;99.90;;;;;;5093311;28;19987;-68
2024/01/21 01:26:45;;;;;;;;;;;1.10;99.90;;;;;;5093140;28;19932;-68
2024/01/21 01:29:10;;;;;;;;;;;1.10;99.90;;;;;;5104080;28;19950;-68
2024/01/21 01:31:36;;;;;;;;;;;1.20;99.90;;;;;;5111698;27;19928;-68
2024/01/21 01:34:02;;;;;;;;;;;1.20;99.90;;;;;;5107238;28;20462;-69
2024/01/21 01:36:28;;;;;;;;;;;1.20;99.90;;;;;;5074002;28;19931;-68
2024/01/21 01:38:53;;;;;;;;;;;1.30;99.90;;;;;;5093085;28;20368;-68
2024/01/21 01:41:19;;;;;;;;;;;1.20;99.90;;;;;;5074086;28;19935;-68
2024/01/21 01:43:44;;;;;;;;;;;2.60;99.90;;;;;;5073717;28;20019;-68
2024/01/21 01:46:10;;;;;;;;;;;1.20;99.90;;;;;;5092793;28;19959;-68
2024/01/21 01:48:35;;;;;;;;;;;1.20;99.90;;;;;;5091733;28;20396;-68
2024/01/21 01:51:03;;;;;;;;;;;1.20;99.90;;;;;;5108003;28;19928;-68
2024/01/21 01:53:29;;;;;;;;;;;1.20;99.90;;;;;;5092979;28;19924;-68
2024/01/21 01:55:55;;;;;;;;;;;1.10;99.90;;;;;;5073783;28;19935;-68
2024/01/21 01:58:26;;;;;;;;;;;1.20;99.90;;;;;;5074278;28;20054;-68
2024/01/21 02:00:52;;;;;;;;;;;1.10;99.90;;;;;;5092881;28;19924;-68
2024/01/21 02:03:18;;;;;;;;;;;1.10;99.90;;;;;;5090694;28;19924;-69
2024/01/21 02:05:43;;;;;;;;;;;1.10;99.90;;;;;;5092654;28;19931;-68
2024/01/21 02:08:08;;;;;;;;;;;1.10;99.90;;;;;;5091885;28;19924;-68
2024/01/21 02:10:34;;;;;;;;;;;-0.10;99.90;;;;;;5107527;28;19928;-69
2024/01/21 02:13:00;;;;;;;;;;;1.00;99.90;;;;;;5074230;28;20372;-68
2024/01/21 02:15:25;;;;;;;;;;;2.70;99.90;;;;;;5092381;28;20303;-69
2024/01/21 02:17:51;;;;;;;;;;;1.70;99.90;;;;;;5091505;28;20450;-68
2024/01/21 02:20:16;;;;;;;;;;;1.10;99.90;;;;;;5107744;28;20410;-68
2024/01/21 02:22:42;;;;;;;;;;;1.10;99.90;;;;;;5092561;28;19924;-68
2024/01/21 02:25:08;;;;;;;;;;;1.20;99.90;;;;;;5072866;28;19924;-68
2024/01/21 02:27:34;;;;;;;;;;;1.20;99.90;;;;;;5092147;28;20298;-69
2024/01/21 02:29:59;;;;;;;;;;;1.30;99.90;;;;;;5074243;28;19928;-69
2024/01/21 02:32:25;;;;;;;;;;;1.30;99.90;;;;;;5092064;28;19963;-69
2024/01/21 02:34:50;;;;;;;;;;;1.30;99.90;;;;;;5088231;28;20303;-69
2024/01/21 02:37:16;;;;;;;;;;;1.40;99.90;;;;;;5112985;28;19920;-69
2024/01/21 02:39:41;;;;;;;;;;;1.40;99.90;;;;;;5085140;28;19990;-69
2024/01/21 02:42:07;;;;;;;;;;;1.50;99.90;;;;;;5102672;28;20379;-69
2024/01/21 02:44:32;;;;;;;;;;;2.50;99.90;;;;;;5086024;28;19923;-68
2024/01/21 02:46:58;;;;;;;;;;;1.50;99.90;;;;;;5101144;28;19980;-68
2024/01/21 02:49:28;;;;;;;;;;;1.60;99.90;;;;;;5080882;28;19930;-68
2024/01/21 02:51:53;;;;;;;;;;;1.60;99.90;;;;;;5098605;28;20343;-69
2024/01/21 02:54:19;;;;;;;;;;;1.60;99.90;;;;;;5117039;28;19924;-68
2024/01/21 02:56:44;;;;;;;;;;;1.60;99.90;;;;;;5099104;28;19973;-68
2024/01/21 02:59:10;;;;;;;;;;;1.60;99.90;;;;;;5116396;28;20006;-68
2024/01/21 03:01:35;;;;;;;;;;;1.60;99.90;;;;;;5115279;28;19930;-68
2024/01/21 03:04:01;;;;;;;;;;;1.70;99.90;;;;;;5096819;28;19920;-68
2024/01/21 03:06:26;;;;;;;;;;;1.70;99.90;;;;;;5077927;28;20268;-68
2024/01/21 03:08:52;;;;;;;;;;;1.70;99.90;;;;;;5096648;28;19928;-69
2024/01/21 03:11:17;;;;;;;;;;;1.70;99.90;;;;;;5078491;28;20475;-68
2024/01/21 03:13:43;;;;;;;;;;;1.70;99.90;;;;;;5096206;28;19931;-69
2024/01/21 03:16:10;;;;;;;;;;;1.70;99.90;;;;;;5077947;28;19925;-68
2024/01/21 03:18:38;;;;;;;;;;;1.50;99.90;;;;;;5096237;28;19924;-69
2024/01/21 03:21:05;;;;;;;;;;;1.60;99.90;;;;;;5077110;28;19924;-69
2024/01/21 03:23:31;;;;;;;;;;;1.60;99.90;;;;;;5078669;28;19924;-69
2024/01/21 03:25:56;;;;;;;;;;;1.50;99.90;;;;;;5078225;28;19924;-68
2024/01/21 03:28:22;;;;;;;;;;;1.50;99.90;;;;;;5095229;28;19924;-68
2024/01/21 03:30:47;;;;;;;;;;;1.80;99.90;;;;;;5078450;28;19924;-69
2024/01/21 03:33:13;;;;;;;;;;;1.50;99.90;;;;;;5078051;28;20021;-68
2024/01/21 03:35:38;;;;;;;;;;;1.40;99.90;;;;;;5077549;28;19927;-68
2024/01/21 03:38:04;;;;;;;;;;;1.50;99.90;;;;;;5078656;28;20390;-69
2024/01/21 03:40:29;;;;;;;;;;;1.50;99.90;;;;;;5116375;28;19924;-68
2024/01/21 03:42:55;;;;;;;;;;;1.50;99.90;;;;;;5097875;28;19937;-68
2024/01/21 03:45:20;;;;;;;;;;;1.50;99.90;;;;;;5092896;28;19924;-68
2024/01/21 03:47:46;;;;;;;;;;;1.50;99.90;;;;;;5093777;28;19924;-68
2024/01/21 03:50:11;;;;;;;;;;;1.50;99.90;;;;;;5078581;28;19931;-68
2024/01/21 03:52:37;;;;;;;;;;;1.50;99.90;;;;;;5091697;28;19974;-68
2024/01/21 03:55:02;;;;;;;;;;;1.50;99.90;;;;;;5076602;28;20054;-69
2024/01/21 03:57:28;;;;;;;;;;;1.60;99.90;;;;;;5074383;28;19935;-68
2024/01/21 03:59:53;;;;;;;;;;;1.60;99.90;;;;;;5077817;28;19925;-68
2024/01/21 04:02:20;;;;;;;;;;;1.70;99.90;;;;;;5082347;28;19978;-69
2024/01/21 04:04:46;;;;;;;;;;;1.70;99.90;;;;;;5074202;28;19924;-68
2024/01/21 04:07:11;;;;;;;;;;;1.70;99.90;;;;;;5089044;28;19931;-69
2024/01/21 04:09:36;;;;;;;;;;;1.60;99.90;;;;;;5073232;28;20405;-69
2024/01/21 04:12:02;;;;;;;;;;;1.60;99.90;;;;;;5073821;28;19928;-69
2024/01/21 04:14:33;;;;;;;;;;;1.70;99.90;;;;;;5073455;28;19928;-69
2024/01/21 04:16:59;;;;;;;;;;;1.80;99.90;;;;;;5072515;28;19932;-70
2024/01/21 04:19:24;;;;;;;;;;;1.80;99.90;;;;;;5073717;28;19932;-70
2024/01/21 04:21:50;;;;;;;;;;;1.80;99.90;;;;;;5074066;28;19924;-70
2024/01/21 04:24:15;;;;;;;;;;;1.90;99.90;;;;;;5072934;28;20011;-69
2024/01/21 04:26:41;;;;;;;;;;;1.90;99.90;;;;;;5073413;28;19930;-70
2024/01/21 04:29:06;;;;;;;;;;;1.90;99.90;;;;;;5073200;28;20303;-70
2024/01/21 04:31:32;;;;;;;;;;;2.00;99.90;;;;;;5072930;28;19928;-70
2024/01/21 04:33:57;;;;;;;;;;;2.20;98.90;;;;;;5074296;28;19932;-70
2024/01/21 04:36:23;;;;;;;;;;;2.10;99.60;;;;;;5073193;28;19932;-70
2024/01/21 04:38:48;;;;;;;;;;;2.10;99.80;;;;;;5072584;28;19942;-70
2024/01/21 04:41:14;;;;;;;;;;;2.10;99.80;;;;;;5073181;28;19924;-70
2024/01/21 04:43:40;;;;;;;;;;;2.00;99.80;;;;;;5074036;28;20015;-68
2024/01/21 04:46:06;;;;;;;;;;;2.00;99.70;;;;;;5093909;28;19959;-68
2024/01/21 04:48:33;;;;;;;;;;;1.90;99.90;;;;;;5076321;28;19924;-68
2024/01/21 04:50:58;;;;;;;;;;;2.10;99.90;;;;;;5076598;28;19971;-68
2024/01/21 04:53:24;;;;;;;;;;;1.90;99.90;;;;;;5109971;28;19956;-68
2024/01/21 04:55:49;;;;;;;;;;;2.20;99.90;;;;;;5093957;28;19969;-68
2024/01/21 04:58:15;;;;;;;;;;;2.00;99.90;;;;;;5114305;28;19977;-68
2024/01/21 05:00:40;;;;;;;;;;;2.10;99.90;;;;;;5113467;28;19969;-68
2024/01/21 05:03:06;;;;;;;;;;;2.10;99.90;;;;;;5096281;28;19969;-68
2024/01/21 05:05:32;;;;;;;;;;;2.10;99.90;;;;;;5110943;28;19924;-68
2024/01/21 05:07:58;;;;;;;;;;;2.10;99.90;;;;;;5086730;28;20389;-68
2024/01/21 05:10:24;;;;;;;;;;;2.00;99.90;;;;;;5096377;28;19948;-68
2024/01/21 05:12:49;;;;;;;;;;;2.20;99.80;;;;;;5078381;28;20346;-68
2024/01/21 05:15:15;;;;;;;;;;;2.10;99.90;;;;;;5075792;28;19931;-68
2024/01/21 05:17:40;;;;;;;;;;;2.20;99.90;;;;;;5075792;28;19927;-68
2024/01/21 05:20:08;;;;;;;;;;;2.20;99.90;;;;;;5075008;28;19924;-68
2024/01/21 05:22:34;;;;;;;;;;;2.30;99.40;;;;;;5075870;28;20337;-68
2024/01/21 05:24:59;;;;;;;;;;;2.20;99.90;;;;;;5092837;28;20010;-68
2024/01/21 05:27:25;;;;;;;;;;;2.20;99.90;;;;;;5095074;28;19923;-68
2024/01/21 05:29:50;;;;;;;;;;;2.20;99.90;;;;;;5096431;28;20287;-68
2024/01/21 05:32:16;;;;;;;;;;;2.10;99.90;;;;;;5096131;28;19930;-68
2024/01/21 05:34:41;;;;;;;;;;;2.20;99.90;;;;;;5095114;28;19931;-68
2024/01/21 05:37:07;;;;;;;;;;;2.00;99.90;;;;;;5093470;28;19931;-68
2024/01/21 05:39:32;;;;;;;;;;;2.10;99.90;;;;;;5084991;28;19924;-68
2024/01/21 05:42:05;;;;;;;;;;;2.10;99.90;;;;;;5075244;28;20488;-68
2024/01/21 05:44:33;;;;;;;;;;;2.30;99.90;;;;;;5075225;28;19924;-68
2024/01/21 05:46:59;;;;;;;;;;;2.20;99.90;;;;;;5075060;28;19973;-68
2024/01/21 05:49:25;;;;;;;;;;;2.20;99.90;;;;;;5085310;28;20345;-68
2024/01/21 05:51:52;;;;;;;;;;;2.20;99.90;;;;;;5095581;28;20284;-68
2024/01/21 05:54:18;;;;;;;;;;;2.20;99.90;;;;;;5093320;28;20032;-68
2024/01/21 05:56:44;;;;;;;;;;;2.20;99.90;;;;;;5094970;28;20290;-68
2024/01/21 05:59:09;;;;;;;;;;;2.20;99.90;;;;;;5095372;28;19924;-68
2024/01/21 06:01:35;;;;;;;;;;;2.10;99.90;;;;;;5095449;28;19992;-68
2024/01/21 06:04:00;;;;;;;;;;;2.20;99.90;;;;;;5074805;28;20291;-68
2024/01/21 06:06:26;;;;;;;;;;;2.20;99.90;;;;;;5075364;28;20014;-68
2024/01/21 06:08:51;;;;;;;;;;;2.20;99.90;;;;;;5075043;28;19932;-68
2024/01/21 06:11:19;;;;;;;;;;;2.20;99.90;;;;;;5075105;28;19924;-70
2024/01/21 06:13:45;;;;;;;;;;;2.10;99.90;;;;;;5075006;28;19928;-68
2024/01/21 06:16:15;;;;;;;;;;;2.10;99.90;;;;;;5075297;28;20577;-70
2024/01/21 06:18:40;;;;;;;;;;;2.00;99.90;;;;;;5075595;28;20375;-68
2024/01/21 06:21:06;;;;;;;;;;;1.90;99.90;;;;;;5074580;28;19925;-68
2024/01/21 06:23:31;;;;;;;;;;;1.90;99.90;;;;;;5074371;28;20340;-68
2024/01/21 06:25:57;;;;;;;;;;;2.00;99.90;;;;;;5110904;28;19930;-68
2024/01/21 06:28:22;;;;;;;;;;;2.00;99.90;;;;;;5075566;28;19924;-68
2024/01/21 06:30:48;;;;;;;;;;;2.10;99.90;;;;;;5074170;28;20268;-68
2024/01/21 06:33:13;;;;;;;;;;;2.00;99.90;;;;;;5093018;28;19935;-68
2024/01/21 06:35:39;;;;;;;;;;;2.00;99.90;;;;;;5075287;28;20390;-68
2024/01/21 06:38:04;;;;;;;;;;;1.80;99.90;;;;;;5073801;28;20420;-68
2024/01/21 06:40:30;;;;;;;;;;;1.70;99.90;;;;;;5088412;28;19924;-68
2024/01/21 06:42:55;;;;;;;;;;;1.80;99.90;;;;;;5095468;28;19923;-68
2024/01/21 06:45:24;;;;;;;;;;;1.80;99.90;;;;;;5090362;28;19932;-68
2024/01/21 06:47:50;;;;;;;;;;;1.90;99.90;;;;;;5091375;28;19928;-68
2024/01/21 06:50:16;;;;;;;;;;;1.80;99.90;;;;;;5091599;28;20287;-68
2024/01/21 06:52:41;;;;;;;;;;;1.90;99.90;;;;;;5091130;28;19969;-68
2024/01/21 06:55:08;;;;;;;;;;;1.80;99.90;;;;;;5079341;28;19925;-68
2024/01/21 06:57:34;;;;;;;;;;;1.90;99.90;;;;;;5071474;28;20327;-68
2024/01/21 06:59:59;;;;;;;;;;;1.90;99.90;;;;;;5070550;28;19932;-68
2024/01/21 07:02:25;;;;;;;;;;;1.90;99.90;;;;;;5071934;28;20019;-68
2024/01/21 07:04:50;;;;;;;;;;;1.90;99.90;;;;;;5078091;28;19920;-68
2024/01/21 07:07:16;;;;;;;;;;;1.80;99.90;;;;;;5087321;28;19924;-68
2024/01/21 07:09:41;;;;;;;;;;;1.80;99.90;;;;;;5085385;28;19925;-68
2024/01/21 07:12:07;;;;;;;;;;;1.90;99.90;;;;;;5070720;28;19925;-68
2024/01/21 07:14:36;;;;;;;;;;;1.80;99.90;;;;;;5071066;28;20352;-68
2024/01/21 07:17:03;;;;;;;;;;;1.80;99.90;;;;;;5070748;28;19971;-68
2024/01/21 07:19:29;;;;;;;;;;;1.90;99.90;;;;;;5073465;28;19928;-68
2024/01/21 07:21:54;;;;;;;;;;;1.90;99.90;;;;;;5091319;28;19931;-68
2024/01/21 07:24:20;;;;;;;;;;;1.80;99.90;;;;;;5091967;28;20019;-68
2024/01/21 07:26:45;;;;;;;;;;;1.90;99.90;;;;;;5095420;28;19973;-68
2024/01/21 07:29:13;;;;;;;;;;;2.00;99.90;;;;;;5093527;28;19924;-68
2024/01/21 07:31:38;;;;;;;;;;;2.00;99.90;;;;;;5094487;28;19935;-68
2024/01/21 07:34:08;;;;;;;;;;;1.90;99.90;;;;;;5094367;28;19924;-68
2024/01/21 07:36:34;;;;;;;;;;;1.90;99.90;;;;;;5096174;28;19924;-68
2024/01/21 07:39:00;;;;;;;;;;;1.90;99.90;;;;;;5076718;28;20291;-69
2024/01/21 07:41:25;;;;;;;;;;;2.00;99.90;;;;;;5073881;28;19931;-68
2024/01/21 07:43:51;;;;;;;;;;;1.90;99.90;;;;;;5076571;28;19925;-69
2024/01/21 07:46:16;;;;;;;;;;;2.00;99.90;;;;;;5095702;28;19938;-69
2024/01/21 07:48:42;;;;;;;;;;;2.00;99.90;;;;;;5096789;28;19924;-69
2024/01/21 07:51:07;;;;;;;;;;;2.00;99.90;;;;;;5096973;28;19923;-69
2024/01/21 07:53:33;;;;;;;;;;;2.00;99.90;;;;;;5116230;28;20266;-69
2024/01/21 07:55:58;;;;;;;;;;;1.90;99.90;;;;;;5103675;28;21590;-69
2024/01/21 07:58:24;;;;;;;;;;;1.80;99.90;;;;;;5080912;28;19974;-69
2024/01/21 08:00:49;;;;;;;;;;;1.70;99.90;;;;;;5087677;28;19924;-69
2024/01/21 08:03:15;;;;;;;;;;;1.70;99.90;;;;;;5086454;28;19930;-69
2024/01/21 08:05:40;;;;;;;;;;;1.70;99.90;;;;;;5091725;28;19924;-69
2024/01/21 08:08:06;;;;;;;;;;;1.70;99.90;;;;;;5071301;28;19939;-68
2024/01/21 08:10:32;;;;;;;;;;;1.90;99.90;;;;;;5076617;28;19924;-68
2024/01/21 08:12:58;;;;;;;;;;;1.70;99.90;;;;;;5077635;28;20376;-69
2024/01/21 08:15:23;;;;;;;;;;;1.70;99.90;;;;;;5074092;28;20014;-69
2024/01/21 08:17:49;;;;;;;;;;;1.80;99.90;;;;;;5073972;28;19928;-69
2024/01/21 08:20:14;;;;;;;;;;;1.80;99.90;;;;;;5093591;28;19930;-69
2024/01/21 08:22:40;;;;;;;;;;;1.70;99.90;;;;;;5074535;28;20372;-69
2024/01/21 08:25:06;;;;;;;;;;;1.70;99.90;;;;;;5093415;28;19982;-70
2024/01/21 08:27:31;;;;;;;;;;;1.80;99.90;;;;;;5088967;28;19934;-68
2024/01/21 08:29:57;;;;;;;;;;;1.80;99.90;;;;;;5094272;28;20020;-68
2024/01/21 08:32:22;;;;;;;;;;;1.80;99.90;;;;;;5076541;28;19997;-69
2024/01/21 08:34:48;;;;;;;;;;;1.90;99.90;;;;;;5076834;28;19943;-70
2024/01/21 08:37:13;;;;;;;;;;;2.00;99.90;;;;;;5075417;28;19924;-69
2024/01/21 08:39:39;;;;;;;;;;;2.20;99.90;;;;;;5076392;28;19950;-69
2024/01/21 08:42:05;;;;;;;;;;;2.00;99.90;;;;;;5111893;28;19924;-73
2024/01/21 08:44:30;;;;;;;;;;;2.00;99.90;;;;;;5095964;28;20433;-73
2024/01/21 08:46:57;;;;;;;;;;;2.10;99.90;;;;;;5096658;28;20298;-74
2024/01/21 08:49:23;;;;;;;;;;;2.60;99.90;;;;;;5084616;28;20019;-70
2024/01/21 08:51:48;;;;;;;;;;;2.10;99.90;;;;;;5094743;28;20335;-69
2024/01/21 08:54:14;;;;;;;;;;;2.10;99.90;;;;;;5091136;28;19931;-71
2024/01/21 08:56:39;;;;;;;;;;;2.20;99.90;;;;;;5077275;28;19955;-71
2024/01/21 08:59:05;;;;;;;;;;;2.20;99.90;;;;;;5074698;28;19930;-71
2024/01/21 09:01:30;;;;;;;;;;;2.10;99.90;;;;;;5075798;28;19924;-71
2024/01/21 09:03:56;;;;;;;;;;;2.20;99.90;;;;;;5076384;28;19924;-71
2024/01/21 09:06:22;;;;;;;;;;;2.20;99.90;;;;;;5076154;28;19928;-75
2024/01/21 09:08:51;;;;;;;;;;;2.30;99.90;;;;;;5076545;28;19924;-78
2024/01/21 09:11:17;;;;;;;;;;;2.20;99.90;;;;;;5096188;28;20375;-77
2024/01/21 09:13:43;;;;;;;;;;;2.40;99.90;;;;;;5087766;28;19970;-73
2024/01/21 09:16:09;;;;;;;;;;;2.40;99.90;;;;;;5075834;28;20362;-76
2024/01/21 09:18:35;;;;;;;;;;;2.50;99.90;;;;;;5076073;28;19924;-74
2024/01/21 09:21:00;;;;;;;;;;;2.40;99.90;;;;;;5091652;28;20443;-79
2024/01/21 09:23:26;;;;;;;;;;;2.40;99.90;;;;;;5096245;28;20018;-72
2024/01/21 09:25:52;;;;;;;;;;;2.50;99.90;;;;;;5095470;28;20409;-74
2024/01/21 09:28:18;;;;;;;;;;;2.50;99.90;;;;;;5094295;28;20357;-72
2024/01/21 09:30:43;;;;;;;;;;;3.80;99.90;;;;;;5075423;28;20397;-75
2024/01/21 09:33:09;;;;;;;;;;;2.50;99.90;;;;;;5082490;28;19934;-72
2024/01/21 09:35:34;;;;;;;;;;;2.50;99.90;;;;;;5094172;28;20448;-71
2024/01/21 09:38:00;;;;;;;;;;;2.40;99.90;;;;;;5090957;28;19967;-71
2024/01/21 09:40:25;;;;;;;;;;;2.40;99.90;;;;;;5074672;28;20125;-72
2024/01/21 09:42:51;;;;;;;;;;;2.50;99.90;;;;;;5108834;27;20317;-71
2024/01/21 09:45:17;;;;;;;;;;;2.70;99.90;;;;;;5084746;28;19935;-72
2024/01/21 09:47:42;;;;;;;;;;;2.70;99.90;;;;;;5074938;28;19924;-74
2024/01/21 09:50:08;;;;;;;;;;;2.80;99.90;;;;;;5072840;28;19932;-74
2024/01/21 09:52:33;;;;;;;;;;;2.80;99.90;;;;;;5079143;28;19920;-75
2024/01/21 09:54:59;;;;;;;;;;;2.80;99.90;;;;;;5077161;28;19928;-75
2024/01/21 09:57:25;;;;;;;;;;;2.80;99.90;;;;;;5074575;28;20019;-73
2024/01/21 09:59:50;;;;;;;;;;;2.80;99.90;;;;;;5080641;28;19924;-74
2024/01/21 10:02:16;;;;;;;;;;;2.80;99.90;;;;;;5107054;28;19924;-74
2024/01/21 10:04:43;;;;;;;;;;;3.20;99.90;;;;;;5075594;28;20301;-75
2024/01/21 10:07:09;;;;;;;;;;;2.90;99.90;;;;;;5068772;28;19928;-74
2024/01/21 10:09:34;;;;;;;;;;;2.80;99.90;;;;;;5107101;28;19932;-75
2024/01/21 10:12:01;;;;;;;;;;;2.80;99.90;;;;;;5068957;28;19924;-72
2024/01/21 10:14:27;;;;;;;;;;;2.80;99.90;;;;;;5107839;28;19924;-73
2024/01/21 10:16:53;;;;;;;;;;;2.80;99.90;;;;;;5107286;27;19924;-73
2024/01/21 10:19:28;;;;;;;;;;;2.80;99.90;;;;;;5087838;28;20369;-73
2024/01/21 10:22:08;;;;;;;;;;;2.80;99.90;;;;;;5106113;27;19968;-73
2024/01/21 10:24:35;;;;;;;;;;;2.90;99.90;;;;;;5073759;28;19929;-73
2024/01/21 10:27:01;;;;;;;;;;;3.40;99.90;;;;;;5073224;28;20394;-74
2024/01/21 10:29:27;;;;;;;;;;;3.00;99.90;;;;;;5106905;28;19924;-73
2024/01/21 10:31:53;;;;;;;;;;;3.00;99.90;;;;;;5073798;28;19931;-73
2024/01/21 10:34:19;;;;;;;;;;;3.00;99.90;;;;;;5107351;28;19939;-74
2024/01/21 10:36:46;;;;;;;;;;;3.00;99.90;;;;;;5106567;28;19924;-73
2024/01/21 10:39:16;;;;;;;;;;;3.10;99.90;;;;;;5111651;28;19971;-73
2024/01/21 10:41:43;;;;;;;;;;;3.60;99.90;;;;;;5107393;28;19930;-73
2024/01/21 10:44:08;;;;;;;;;;;3.10;99.90;;;;;;5105988;28;19923;-72
2024/01/21 10:46:35;;;;;;;;;;;3.10;99.90;;;;;;5073361;28;19931;-73
2024/01/21 10:49:00;;;;;;;;;;;3.10;99.90;;;;;;5075537;28;19924;-72
2024/01/21 10:51:26;;;;;;;;;;;3.20;99.90;;;;;;5109576;28;19938;-72
2024/01/21 10:53:52;;;;;;;;;;;3.20;99.90;;;;;;5085543;28;19977;-72
2024/01/21 10:56:19;;;;;;;;;;;3.20;99.90;;;;;;5074012;28;19952;-70
2024/01/21 10:58:45;;;;;;;;;;;3.30;99.90;;;;;;5077067;28;19924;-71
2024/01/21 11:01:11;;;;;;;;;;;3.30;99.90;;;;;;5112946;27;20276;-72
2024/01/21 11:03:36;;;;;;;;;;;3.20;99.90;;;;;;5091537;28;19931;-73
2024/01/21 11:06:04;;;;;;;;;;;3.40;99.90;;;;;;5076766;28;19924;-72
2024/01/21 11:08:31;;;;;;;;;;;3.00;99.90;;;;;;5084621;28;20375;-73
2024/01/21 11:11:08;;;;;;;;;;;3.10;99.90;;;;;;5078140;28;19931;-73
2024/01/21 11:13:47;;;;;;;;;;;3.00;99.90;;;;;;5074266;28;20288;-74
2024/01/21 11:16:33;;;;;;;;;;;3.10;99.90;;;;;;5071156;28;19935;-73
2024/01/21 11:19:04;;;;;;;;;;;3.40;99.90;;;;;;5072158;28;19928;-74
2024/01/21 11:21:32;;;;;;;;;;;3.10;99.90;;;;;;5076658;28;19985;-74
2024/01/21 11:24:02;;;;;;;;;;;3.00;99.90;;;;;;5077270;28;19920;-76
2024/01/21 11:26:47;;;;;;;;;;;3.10;99.90;;;;;;5075255;28;19935;-72
2024/01/21 11:29:29;;;;;;;;;;;3.10;99.90;;;;;;5071718;28;19931;-73
2024/01/21 11:31:59;;;;;;;;;;;3.10;99.90;;;;;;5076283;28;20007;-75
2024/01/21 11:34:27;;;;;;;;;;;3.10;99.90;;;;;;5074790;28;19968;-77
2024/01/21 11:36:52;;;;;;;;;;;3.40;99.90;;;;;;5079959;28;19999;-73
2024/01/21 11:39:20;;;;;;;;;;;3.60;99.90;;;;;;5075726;28;20023;-72
2024/01/21 11:41:46;;;;;;;;;;;3.10;99.90;;;;;;5078196;28;19924;-75
2024/01/21 11:44:13;;;;;;;;;;;3.10;99.90;;;;;;5076853;28;20247;-75
2024/01/21 11:46:39;;;;;;;;;;;3.00;99.90;;;;;;5081450;28;19928;-73
2024/01/21 11:49:05;;;;;;;;;;;3.20;99.90;;;;;;5078827;28;19924;-78
2024/01/21 11:51:31;;;;;;;;;;;3.20;99.90;;;;;;5070132;28;19978;-77
2024/01/21 11:53:56;;;;;;;;;;;3.20;99.90;;;;;;5079230;28;20307;-81
2024/01/21 11:56:22;;;;;;;;;;;3.20;99.90;;;;;;5077360;28;20280;-80
2024/01/21 11:58:48;;;;;;;;;;;3.30;99.90;;;;;;5076366;28;19992;-76
2024/01/21 12:01:14;;;;;;;;;;;3.40;99.90;;;;;;5074797;28;19931;-72
2024/01/21 12:03:39;;;;;;;;;;;3.40;99.90;;;;;;5076179;28;19928;-72
2024/01/21 12:06:05;;;;;;;;;;;3.40;99.90;;;;;;5076310;28;19932;-73
2024/01/21 12:08:30;;;;;;;;;;;3.50;99.90;;;;;;5082955;28;20395;-71
2024/01/21 12:10:56;;;;;;;;;;;3.90;99.90;;;;;;5074896;28;19924;-72
2024/01/21 12:13:21;;;;;;;;;;;4.50;99.90;;;;;;5076035;28;19935;-71
2024/01/21 12:15:50;;;;;;;;;;;3.50;99.90;;;;;;5075866;28;19974;-71
2024/01/21 12:18:16;;;;;;;;;;;3.50;99.90;;;;;;5076162;28;19924;-71
2024/01/21 12:20:42;;;;;;;;;;;3.80;99.90;;;;;;5076660;28;19932;-76
2024/01/21 12:23:18;;;;;;;;;;;4.60;99.90;;;;;;5112492;27;20375;-79
2024/01/21 12:25:43;;;;;;;;;;;3.50;99.90;;;;;;5079557;28;19978;-73
2024/01/21 12:28:11;;;;;;;;;;;3.60;99.90;;;;;;5115233;27;19927;-76
2024/01/21 12:30:37;;;;;;;;;;;3.90;99.90;;;;;;5078934;28;19924;-79
2024/01/21 12:33:03;;;;;;;;;;;3.90;99.90;;;;;;5073144;28;19986;-76
2024/01/21 12:35:28;;;;;;;;;;;3.70;99.90;;;;;;5072388;28;19932;-73
2024/01/21 12:37:54;;;;;;;;;;;3.60;99.90;;;;;;5080736;28;19968;-74
2024/01/21 12:40:20;;;;;;;;;;;4.70;99.90;;;;;;5080247;28;19920;-72
2024/01/21 12:42:46;;;;;;;;;;;3.80;99.90;;;;;;5084501;28;19972;-74
2024/01/21 12:45:12;;;;;;;;;;;3.80;99.90;;;;;;5082098;28;19966;-75
2024/01/21 12:47:38;;;;;;;;;;;3.70;99.90;;;;;;5076516;28;19924;-77
2024/01/21 12:50:06;;;;;;;;;;;3.70;99.90;;;;;;5081012;28;19924;-74
2024/01/21 12:52:31;;;;;;;;;;;3.80;99.90;;;;;;5080194;28;19927;-75
2024/01/21 12:54:56;;;;;;;;;;;4.50;99.90;;;;;;5082085;28;19924;-73
2024/01/21 12:57:22;;;;;;;;;;;3.80;99.90;;;;;;5078438;28;20061;-73
2024/01/21 12:59:47;;;;;;;;;;;4.50;99.90;;;;;;5121008;27;20601;-74
2024/01/21 13:02:15;;;;;;;;;;;4.30;99.90;;;;;;5073571;28;20405;-76
2024/01/21 13:04:41;;;;;;;;;;;3.90;99.90;;;;;;5111966;27;20306;-76
2024/01/21 13:07:07;;;;;;;;;;;3.80;99.90;;;;;;5113836;27;19924;-76
2024/01/21 13:09:32;;;;;;;;;;;4.10;99.90;;;;;;5085062;28;19931;-76
2024/01/21 13:11:58;;;;;;;;;;;3.80;99.90;;;;;;5115860;27;19938;-74
2024/01/21 13:14:23;;;;;;;;;;;3.70;99.90;;;;;;5084578;28;19924;-77
2024/01/21 13:16:49;;;;;;;;;;;3.70;99.90;;;;;;5079096;28;20440;-72
2024/01/21 13:19:14;;;;;;;;;;;4.60;99.90;;;;;;5078591;28;19924;-74
2024/01/21 13:21:40;;;;;;;;;;;4.50;99.90;;;;;;5076087;28;20303;-74
2024/01/21 13:24:07;;;;;;;;;;;5.00;99.90;;;;;;5115627;27;19928;-76
2024/01/21 13:26:32;;;;;;;;;;;3.70;99.90;;;;;;5082152;28;19942;-76
2024/01/21 13:31:34;;;;;;;;;;;4.10;99.90;;;;;;5114233;27;19924;-77
2024/01/21 13:34:03;;;;;;;;;;;3.80;99.90;;;;;;5082731;28;19928;-71
2024/01/21 13:36:33;;;;;;;;;;;3.90;99.90;;;;;;5079006;28;19954;-70
2024/01/21 13:38:59;;;;;;;;;;;4.00;99.90;;;;;;5078012;28;19924;-71
2024/01/21 13:41:24;;;;;;;;;;;4.00;99.90;;;;;;5080972;28;19924;-70
2024/01/21 13:43:50;;;;;;;;;;;4.80;99.90;;;;;;5113663;27;19927;-71
2024/01/21 13:46:18;;;;;;;;;;;4.10;99.90;;;;;;5078911;28;19925;-70
2024/01/21 13:48:44;;;;;;;;;;;4.30;99.90;;;;;;5080435;28;19967;-72
2024/01/21 13:51:09;;;;;;;;;;;4.10;99.90;;;;;;5077011;28;19967;-73
2024/01/21 13:53:35;;;;;;;;;;;4.10;99.90;;;;;;5079811;28;20383;-72
2024/01/21 13:56:01;;;;;;;;;;;5.10;99.90;;;;;;5080697;28;19924;-70
2024/01/21 13:58:26;;;;;;;;;;;4.20;99.90;;;;;;5100507;28;19930;-72
2024/01/21 14:00:52;;;;;;;;;;;4.10;99.90;;;;;;5116089;27;19930;-71
2024/01/21 14:03:18;;;;;;;;;;;4.20;99.90;;;;;;5076556;28;20335;-71
2024/01/21 14:05:43;;;;;;;;;;;4.40;99.90;;;;;;5115785;27;19924;-71
2024/01/21 14:08:10;;;;;;;;;;;4.20;99.90;;;;;;5080828;28;20034;-74
2024/01/21 14:10:35;;;;;;;;;;;4.20;99.90;;;;;;5086548;28;19924;-74
2024/01/21 14:13:01;;;;;;;;;;;4.20;99.90;;;;;;5074989;28;19924;-73
2024/01/21 14:15:26;;;;;;;;;;;4.30;99.90;;;;;;5070046;28;20436;-72
2024/01/21 14:17:52;;;;;;;;;;;4.30;99.90;;;;;;5074082;28;19928;-72
2024/01/21 14:20:18;;;;;;;;;;;4.30;99.90;;;;;;5073149;28;20795;-71
2024/01/21 14:22:44;;;;;;;;;;;4.40;99.90;;;;;;5073899;28;20023;-74
2024/01/21 14:25:28;;;;;;;;;;;4.30;99.90;;;;;;5106617;28;19927;-71
2024/01/21 14:27:54;;;;;;;;;;;4.40;99.90;;;;;;5072888;28;19962;-71